Time;durP1;ratioP1;P1;durP2;ratioP2;P2;SDS_P1;SDS_P2;PMS_P1;PMS_P2;Temp;Humidity;BMP_temperature;BMP_pressure;BME280_temperature;BME280_humidity;BME280_pressure;Samples;Min_cycle;Max_cycle;Signal;HPM_P1;HPM_P2
2023/08/10 00:01:07;;;;;;;2.67;1.33;;;;;;;;;;4990338;28;20046;-79
2023/08/10 00:03:37;;;;;;;3.05;1.50;;;;;;;;;;4994507;28;20043;-79
2023/08/10 00:06:04;;;;;;;4.97;1.40;;;;;;;;;;4990508;28;20458;-79
2023/08/10 00:08:31;;;;;;;3.78;1.23;;;;;;;;;;4991062;28;20050;-78
2023/08/10 00:10:57;;;;;;;2.75;1.17;;;;;;;;;;4990620;28;20449;-79
2023/08/10 00:13:24;;;;;;;6.22;1.10;;;;;;;;;;4989062;28;20633;-77
2023/08/10 00:15:51;;;;;;;2.28;1.05;;;;;;;;;;4988911;28;20379;-81
2023/08/10 00:18:19;;;;;;;4.38;1.30;;;;;;;;;;4988871;28;20100;-78
2023/08/10 00:20:46;;;;;;;5.45;1.30;;;;;;;;;;5003839;28;20066;-79
2023/08/10 00:23:13;;;;;;;1.75;1.05;;;;;;;;;;5010549;28;20057;-78
2023/08/10 00:25:39;;;;;;;2.85;1.13;;;;;;;;;;5010017;28;20030;-78
2023/08/10 00:28:06;;;;;;;2.05;1.10;;;;;;;;;;5011364;28;20026;-78
2023/08/10 00:30:33;;;;;;;7.78;1.20;;;;;;;;;;4991171;28;20042;-78
2023/08/10 00:33:00;;;;;;;2.28;1.20;;;;;;;;;;4987253;28;20111;-78
2023/08/10 00:35:27;;;;;;;2.03;1.10;;;;;;;;;;5002974;28;20298;-78
2023/08/10 00:37:54;;;;;;;2.03;1.10;;;;;;;;;;5015727;28;20046;-76
2023/08/10 00:40:21;;;;;;;1.90;1.17;;;;;;;;;;4991311;28;20046;-79
2023/08/10 00:42:48;;;;;;;2.00;1.00;;;;;;;;;;4992047;28;20054;-78
2023/08/10 00:45:14;;;;;;;2.72;1.08;;;;;;;;;;4996040;28;20058;-78
2023/08/10 00:47:41;;;;;;;5.55;1.23;;;;;;;;;;4972111;28;20124;-77
2023/08/10 00:50:09;;;;;;;1.52;1.05;;;;;;;;;;4991001;28;20470;-79
2023/08/10 00:52:36;;;;;;;2.08;1.08;;;;;;;;;;4989068;28;20050;-78
2023/08/10 00:55:03;;;;;;;3.92;1.10;;;;;;;;;;4968859;28;20046;-78
2023/08/10 00:57:30;;;;;;;3.38;1.08;;;;;;;;;;4988130;28;20151;-76
2023/08/10 00:59:56;;;;;;;2.95;1.35;;;;;;;;;;4984559;28;20515;-79
2023/08/10 01:02:24;;;;;;;2.28;1.13;;;;;;;;;;4988485;28;20042;-80
2023/08/10 01:04:50;;;;;;;2.92;1.40;;;;;;;;;;4989083;28;20047;-80
2023/08/10 01:07:17;;;;;;;4.47;1.27;;;;;;;;;;4988488;28;20064;-80
2023/08/10 01:09:49;;;;;;;4.30;1.10;;;;;;;;;;4989449;28;20050;-79
2023/08/10 01:12:34;;;;;;;2.13;0.98;;;;;;;;;;4986642;28;20053;-80
2023/08/10 01:15:13;;;;;;;1.88;1.10;;;;;;;;;;4984012;28;21459;-80
2023/08/10 01:17:43;;;;;;;2.20;1.10;;;;;;;;;;4998418;28;20096;-81
2023/08/10 01:20:12;;;;;;;4.97;1.00;;;;;;;;;;4988641;28;20051;-77
2023/08/10 01:22:41;;;;;;;1.48;0.82;;;;;;;;;;4990533;28;20062;-80
2023/08/10 01:25:09;;;;;;;2.22;1.00;;;;;;;;;;4990547;28;20045;-78
2023/08/10 01:27:36;;;;;;;1.55;1.10;;;;;;;;;;4987475;28;20054;-80
2023/08/10 01:30:03;;;;;;;1.88;1.05;;;;;;;;;;4989615;28;20137;-78
2023/08/10 01:32:33;;;;;;;2.47;1.00;;;;;;;;;;4994797;28;20138;-78
2023/08/10 01:35:00;;;;;;;1.50;1.00;;;;;;;;;;4987330;28;22415;-79
2023/08/10 01:37:30;;;;;;;2.72;1.10;;;;;;;;;;4991967;28;22186;-79
2023/08/10 01:40:09;;;;;;;1.75;0.90;;;;;;;;;;4993070;28;20056;-79
2023/08/10 01:42:43;;;;;;;5.43;0.93;;;;;;;;;;4977511;28;20337;-79
2023/08/10 01:45:10;;;;;;;3.80;1.20;;;;;;;;;;4988381;28;20066;-80
2023/08/10 01:47:42;;;;;;;1.48;1.00;;;;;;;;;;4968302;28;20043;-78
2023/08/10 01:50:08;;;;;;;3.17;1.10;;;;;;;;;;4992049;28;20466;-78
2023/08/10 01:52:45;;;;;;;4.15;1.38;;;;;;;;;;4990631;28;20050;-79
2023/08/10 01:55:12;;;;;;;1.42;0.90;;;;;;;;;;4990834;28;20050;-77
2023/08/10 01:57:40;;;;;;;1.70;1.10;;;;;;;;;;4988403;28;20102;-77
2023/08/10 02:00:07;;;;;;;3.47;1.15;;;;;;;;;;4991691;28;20129;-77
2023/08/10 02:02:41;;;;;;;5.25;1.25;;;;;;;;;;4991515;28;20508;-78
2023/08/10 02:05:11;;;;;;;4.65;1.10;;;;;;;;;;4989655;28;20034;-78
2023/08/10 02:07:41;;;;;;;3.13;1.00;;;;;;;;;;4989490;28;20077;-78
2023/08/10 02:10:09;;;;;;;1.38;0.90;;;;;;;;;;4989084;28;20556;-78
2023/08/10 02:12:39;;;;;;;1.95;1.08;;;;;;;;;;4990940;28;20084;-79
2023/08/10 02:15:06;;;;;;;3.55;1.30;;;;;;;;;;4992746;28;20102;-78
2023/08/10 02:17:36;;;;;;;2.03;1.17;;;;;;;;;;4998976;28;20081;-79
2023/08/10 02:20:05;;;;;;;3.92;1.15;;;;;;;;;;4993487;28;21808;-79
2023/08/10 02:22:43;;;;;;;2.35;1.33;;;;;;;;;;4992650;28;21310;-79
2023/08/10 02:25:10;;;;;;;5.18;1.20;;;;;;;;;;4990520;28;20058;-78
2023/08/10 02:27:37;;;;;;;2.70;1.27;;;;;;;;;;4992978;28;20053;-80
2023/08/10 02:30:06;;;;;;;2.85;1.20;;;;;;;;;;4992952;28;21580;-79
2023/08/10 02:32:33;;;;;;;2.03;1.10;;;;;;;;;;4993455;28;20427;-79
2023/08/10 02:34:59;;;;;;;5.22;1.30;;;;;;;;;;4993554;28;20077;-79
2023/08/10 02:37:26;;;;;;;2.63;1.10;;;;;;;;;;4994505;28;20050;-79
2023/08/10 02:39:53;;;;;;;2.17;1.10;;;;;;;;;;4992044;28;20122;-79
2023/08/10 02:42:22;;;;;;;5.05;1.08;;;;;;;;;;4976837;28;20046;-80
2023/08/10 02:44:53;;;;;;;4.25;1.02;;;;;;;;;;4982298;28;20047;-80
2023/08/10 02:47:21;;;;;;;1.80;1.08;;;;;;;;;;4977639;28;20051;-77
2023/08/10 02:49:48;;;;;;;3.72;1.17;;;;;;;;;;4991017;28;20081;-79
2023/08/10 02:52:15;;;;;;;2.70;1.10;;;;;;;;;;4988854;28;20557;-79
2023/08/10 02:54:41;;;;;;;4.60;1.10;;;;;;;;;;4988901;28;20054;-78
2023/08/10 02:57:08;;;;;;;2.05;1.13;;;;;;;;;;4994304;28;20412;-78
2023/08/10 02:59:36;;;;;;;1.98;1.08;;;;;;;;;;4990251;28;20050;-79
2023/08/10 03:02:05;;;;;;;2.47;0.90;;;;;;;;;;4991157;28;20066;-79
2023/08/10 03:04:33;;;;;;;3.55;1.17;;;;;;;;;;4946541;28;20046;-80
2023/08/10 03:07:01;;;;;;;2.03;0.90;;;;;;;;;;4987388;28;20042;-79
2023/08/10 03:09:27;;;;;;;3.70;1.02;;;;;;;;;;4988670;28;20076;-80
2023/08/10 03:11:54;;;;;;;2.22;1.05;;;;;;;;;;4990466;28;20134;-81
2023/08/10 03:14:23;;;;;;;3.17;1.02;;;;;;;;;;4988118;28;20057;-79
2023/08/10 03:16:50;;;;;;;5.47;1.15;;;;;;;;;;4996485;28;20037;-79
2023/08/10 03:19:17;;;;;;;3.25;1.00;;;;;;;;;;4990154;28;20512;-79
2023/08/10 03:21:45;;;;;;;3.40;1.00;;;;;;;;;;4992520;28;20042;-79
2023/08/10 03:24:12;;;;;;;1.65;1.20;;;;;;;;;;4994846;28;20046;-79
2023/08/10 03:26:45;;;;;;;2.08;1.23;;;;;;;;;;4988962;28;20054;-80
2023/08/10 03:29:12;;;;;;;2.22;1.10;;;;;;;;;;4991583;28;20084;-77
2023/08/10 03:31:39;;;;;;;1.45;0.93;;;;;;;;;;4990490;28;20049;-78
2023/08/10 03:34:08;;;;;;;1.63;1.00;;;;;;;;;;4989476;28;20054;-78
2023/08/10 03:36:35;;;;;;;2.55;1.00;;;;;;;;;;5005965;28;20102;-79
2023/08/10 03:39:04;;;;;;;3.35;1.30;;;;;;;;;;4991592;28;20050;-78
2023/08/10 03:41:30;;;;;;;5.47;1.40;;;;;;;;;;4991022;28;20066;-79
2023/08/10 03:44:04;;;;;;;2.10;1.33;;;;;;;;;;4967606;28;20518;-79
2023/08/10 03:46:30;;;;;;;3.45;0.90;;;;;;;;;;4991223;28;20038;-80
2023/08/10 03:48:57;;;;;;;4.40;1.30;;;;;;;;;;4990653;28;20061;-80
2023/08/10 03:51:24;;;;;;;2.33;1.23;;;;;;;;;;4990438;28;20054;-80
2023/08/10 03:53:51;;;;;;;1.40;1.10;;;;;;;;;;4988485;28;20057;-79
2023/08/10 03:56:20;;;;;;;2.00;1.05;;;;;;;;;;4988216;28;20097;-80
2023/08/10 03:58:47;;;;;;;5.88;1.30;;;;;;;;;;4990479;28;20117;-78
2023/08/10 04:01:14;;;;;;;3.08;1.15;;;;;;;;;;4986103;28;20056;-79
2023/08/10 04:03:41;;;;;;;3.00;1.10;;;;;;;;;;4986844;28;20056;-80
2023/08/10 04:06:11;;;;;;;2.50;1.20;;;;;;;;;;4991621;28;20121;-79
2023/08/10 04:08:38;;;;;;;1.67;1.00;;;;;;;;;;4989745;28;20046;-79
2023/08/10 04:11:04;;;;;;;2.95;1.20;;;;;;;;;;4991382;28;20050;-79
2023/08/10 04:13:31;;;;;;;1.33;0.98;;;;;;;;;;4989289;28;20167;-80
2023/08/10 04:15:58;;;;;;;2.17;1.00;;;;;;;;;;4968521;28;20046;-80
2023/08/10 04:18:28;;;;;;;1.95;0.90;;;;;;;;;;4969373;28;20054;-80
2023/08/10 04:20:55;;;;;;;2.88;1.25;;;;;;;;;;4990170;28;20042;-81
2023/08/10 04:23:22;;;;;;;1.92;0.93;;;;;;;;;;4973213;28;20066;-77
2023/08/10 04:25:51;;;;;;;2.97;1.10;;;;;;;;;;4984750;28;20073;-80
2023/08/10 04:28:18;;;;;;;3.78;1.05;;;;;;;;;;4974303;28;20062;-77
2023/08/10 04:30:45;;;;;;;2.80;1.20;;;;;;;;;;4989463;28;20096;-77
2023/08/10 04:33:11;;;;;;;1.70;0.90;;;;;;;;;;4988527;28;20053;-80
2023/08/10 04:35:38;;;;;;;3.33;0.90;;;;;;;;;;4990857;28;20419;-79
2023/08/10 04:38:05;;;;;;;2.85;0.98;;;;;;;;;;4993022;28;20094;-80
2023/08/10 04:40:32;;;;;;;2.15;0.98;;;;;;;;;;4991724;28;20056;-78
2023/08/10 04:42:59;;;;;;;1.70;1.05;;;;;;;;;;4991555;28;20042;-78
2023/08/10 04:45:26;;;;;;;3.55;1.00;;;;;;;;;;4990541;28;20137;-78
2023/08/10 04:47:53;;;;;;;1.58;1.00;;;;;;;;;;4992566;28;20102;-78
2023/08/10 04:50:19;;;;;;;1.50;0.90;;;;;;;;;;4990100;28;20991;-80
2023/08/10 04:52:47;;;;;;;3.63;1.25;;;;;;;;;;4991094;28;20043;-77
2023/08/10 04:55:14;;;;;;;5.43;1.15;;;;;;;;;;4988614;28;20050;-78
2023/08/10 04:57:41;;;;;;;1.88;1.10;;;;;;;;;;4990475;28;20039;-78
2023/08/10 05:00:13;;;;;;;3.15;1.15;;;;;;;;;;4991485;28;20046;-78
2023/08/10 05:02:41;;;;;;;2.22;0.90;;;;;;;;;;4986986;28;20106;-78
2023/08/10 05:05:08;;;;;;;4.05;1.17;;;;;;;;;;4974549;28;20415;-79
2023/08/10 05:07:37;;;;;;;2.45;1.30;;;;;;;;;;4993689;28;20051;-78
2023/08/10 05:10:05;;;;;;;2.33;1.33;;;;;;;;;;4993689;28;20046;-77
2023/08/10 05:12:34;;;;;;;2.50;1.40;;;;;;;;;;4995437;28;20062;-78
2023/08/10 05:15:03;;;;;;;3.53;1.20;;;;;;;;;;4997877;28;20058;-79
2023/08/10 05:17:29;;;;;;;1.65;1.15;;;;;;;;;;4995354;28;20042;-79
2023/08/10 05:19:57;;;;;;;3.35;1.20;;;;;;;;;;4996711;28;20510;-76
2023/08/10 05:22:23;;;;;;;2.58;1.40;;;;;;;;;;4992808;28;20936;-78
2023/08/10 05:24:50;;;;;;;2.83;1.50;;;;;;;;;;4993318;28;20046;-78
2023/08/10 05:27:17;;;;;;;5.25;1.40;;;;;;;;;;4994532;28;20088;-78
2023/08/10 05:29:44;;;;;;;3.50;1.40;;;;;;;;;;4994109;28;20542;-79
2023/08/10 05:32:10;;;;;;;2.28;1.40;;;;;;;;;;4994119;28;20232;-77
2023/08/10 05:34:37;;;;;;;3.75;1.50;;;;;;;;;;4994300;28;20121;-78
2023/08/10 05:37:04;;;;;;;6.65;1.92;;;;;;;;;;4992221;28;20046;-77
2023/08/10 05:39:34;;;;;;;1.85;1.35;;;;;;;;;;4991948;28;20073;-78
2023/08/10 05:42:00;;;;;;;3.45;1.30;;;;;;;;;;4981886;28;20065;-79
2023/08/10 05:44:27;;;;;;;2.30;1.20;;;;;;;;;;4992071;28;20454;-80
2023/08/10 05:46:54;;;;;;;3.38;1.45;;;;;;;;;;4994960;28;20058;-81
2023/08/10 05:49:21;;;;;;;4.05;1.52;;;;;;;;;;4993726;28;20038;-80
2023/08/10 05:51:48;;;;;;;2.33;1.50;;;;;;;;;;4994879;28;20054;-79
2023/08/10 05:54:15;;;;;;;2.50;1.40;;;;;;;;;;4997693;28;20046;-79
2023/08/10 05:56:42;;;;;;;5.82;1.58;;;;;;;;;;4996676;28;20046;-79
2023/08/10 05:59:09;;;;;;;3.33;1.42;;;;;;;;;;4994786;28;20113;-79
2023/08/10 06:01:35;;;;;;;4.43;1.00;;;;;;;;;;5000624;28;20054;-79
2023/08/10 06:04:04;;;;;;;4.55;1.20;;;;;;;;;;5002367;28;20047;-79
2023/08/10 06:06:31;;;;;;;2.88;1.20;;;;;;;;;;5008677;28;20058;-79
2023/08/10 06:08:58;;;;;;;2.05;1.10;;;;;;;;;;5002765;28;20035;-78
2023/08/10 06:11:25;;;;;;;4.18;1.67;;;;;;;;;;5012411;28;20049;-78
2023/08/10 06:14:12;;;;;;;3.10;1.50;;;;;;;;;;5009880;28;21502;-80
2023/08/10 06:16:40;;;;;;;2.30;1.13;;;;;;;;;;4994293;28;20065;-80
2023/08/10 06:19:07;;;;;;;1.52;1.10;;;;;;;;;;4998653;28;20046;-80
2023/08/10 06:21:33;;;;;;;2.05;1.00;;;;;;;;;;4993348;28;20046;-79
2023/08/10 06:24:00;;;;;;;3.45;1.10;;;;;;;;;;4992424;28;20511;-81
2023/08/10 06:26:27;;;;;;;1.90;0.93;;;;;;;;;;4991676;28;20066;-81
2023/08/10 06:28:54;;;;;;;2.13;1.00;;;;;;;;;;4994446;28;20050;-81
2023/08/10 06:31:21;;;;;;;3.22;1.02;;;;;;;;;;4995076;28;20582;-79
2023/08/10 06:33:47;;;;;;;4.03;1.10;;;;;;;;;;4994996;28;20121;-80
2023/08/10 06:36:14;;;;;;;2.72;1.10;;;;;;;;;;4995833;28;20046;-79
2023/08/10 06:38:41;;;;;;;2.13;0.80;;;;;;;;;;4992133;28;20061;-80
2023/08/10 06:41:08;;;;;;;2.45;0.88;;;;;;;;;;4995132;28;20595;-79
2023/08/10 06:43:34;;;;;;;1.92;0.88;;;;;;;;;;5010259;28;20093;-78
2023/08/10 06:46:01;;;;;;;1.95;0.73;;;;;;;;;;4982881;28;20433;-79
2023/08/10 06:48:28;;;;;;;2.58;0.60;;;;;;;;;;4992166;28;20514;-80
2023/08/10 06:50:55;;;;;;;2.50;0.77;;;;;;;;;;4993360;28;20046;-81
2023/08/10 06:53:22;;;;;;;1.80;0.70;;;;;;;;;;4994046;28;20049;-80
2023/08/10 06:55:50;;;;;;;1.80;0.70;;;;;;;;;;4990990;28;20054;-80
2023/08/10 06:58:17;;;;;;;4.47;0.90;;;;;;;;;;4994497;28;20061;-80
2023/08/10 07:00:47;;;;;;;4.53;0.82;;;;;;;;;;4994479;28;20034;-79
2023/08/10 07:03:14;;;;;;;3.20;0.70;;;;;;;;;;4992795;28;20054;-79
2023/08/10 07:05:42;;;;;;;3.65;0.90;;;;;;;;;;4993309;28;20050;-79
2023/08/10 07:08:09;;;;;;;3.22;0.80;;;;;;;;;;4995352;28;20100;-79
2023/08/10 07:10:36;;;;;;;1.52;0.70;;;;;;;;;;4996128;28;20133;-79
2023/08/10 07:13:03;;;;;;;1.75;0.60;;;;;;;;;;4993894;28;20690;-79
2023/08/10 07:15:30;;;;;;;0.90;0.57;;;;;;;;;;4990869;28;20058;-78
2023/08/10 07:17:57;;;;;;;1.35;0.60;;;;;;;;;;4993365;28;20042;-78
2023/08/10 07:20:24;;;;;;;2.60;0.60;;;;;;;;;;4993635;28;20034;-78
2023/08/10 07:22:51;;;;;;;0.60;0.43;;;;;;;;;;4994242;28;20046;-79
2023/08/10 07:25:18;;;;;;;2.88;1.15;;;;;;;;;;4994169;28;20038;-78
2023/08/10 07:27:46;;;;;;;4.43;0.88;;;;;;;;;;4993480;28;20074;-80
2023/08/10 07:30:16;;;;;;;1.50;0.75;;;;;;;;;;4992882;28;20042;-79
2023/08/10 07:32:43;;;;;;;1.02;0.50;;;;;;;;;;4996368;28;20054;-78
2023/08/10 07:35:09;;;;;;;2.08;0.88;;;;;;;;;;4994094;28;20042;-79
2023/08/10 07:37:36;;;;;;;1.98;0.60;;;;;;;;;;4992714;28;20073;-79
2023/08/10 07:40:03;;;;;;;1.80;0.80;;;;;;;;;;4994499;28;20069;-79
2023/08/10 07:42:30;;;;;;;2.50;0.70;;;;;;;;;;4995221;28;20431;-79
2023/08/10 07:44:57;;;;;;;4.72;1.23;;;;;;;;;;4992612;28;20069;-79
2023/08/10 07:47:24;;;;;;;1.52;0.70;;;;;;;;;;4992794;28;20109;-79
2023/08/10 07:49:51;;;;;;;1.77;0.73;;;;;;;;;;4992167;28;20539;-80
2023/08/10 07:52:18;;;;;;;1.50;0.75;;;;;;;;;;4991359;28;20054;-78
2023/08/10 07:54:45;;;;;;;4.38;0.90;;;;;;;;;;4992344;28;20046;-80
2023/08/10 07:57:11;;;;;;;3.28;0.98;;;;;;;;;;4993776;28;20050;-79
2023/08/10 07:59:38;;;;;;;1.80;0.80;;;;;;;;;;4988006;28;21581;-79
2023/08/10 08:02:09;;;;;;;2.45;0.88;;;;;;;;;;4990964;28;20506;-79
2023/08/10 08:04:36;;;;;;;2.08;0.90;;;;;;;;;;4992467;28;20100;-79
2023/08/10 08:07:03;;;;;;;2.85;0.98;;;;;;;;;;4992932;28;20582;-78
2023/08/10 08:09:29;;;;;;;1.88;0.70;;;;;;;;;;4992232;28;20065;-77
2023/08/10 08:11:56;;;;;;;1.75;0.80;;;;;;;;;;4994228;28;20046;-80
2023/08/10 08:14:23;;;;;;;2.60;0.90;;;;;;;;;;4991230;28;20054;-79
2023/08/10 08:16:52;;;;;;;2.65;1.10;;;;;;;;;;4992422;28;20046;-79
2023/08/10 08:19:19;;;;;;;2.55;1.10;;;;;;;;;;4991530;28;20073;-79
2023/08/10 08:21:48;;;;;;;2.38;1.00;;;;;;;;;;4993036;28;20668;-79
2023/08/10 08:24:17;;;;;;;2.50;1.15;;;;;;;;;;4992169;28;20049;-77
2023/08/10 08:26:43;;;;;;;3.88;1.00;;;;;;;;;;4990500;28;20065;-77
2023/08/10 08:29:10;;;;;;;3.58;1.10;;;;;;;;;;4993062;28;20042;-77
2023/08/10 08:31:37;;;;;;;3.25;1.25;;;;;;;;;;4989783;28;20054;-79
2023/08/10 08:34:04;;;;;;;4.45;1.30;;;;;;;;;;4986821;28;20053;-79
2023/08/10 08:36:30;;;;;;;2.28;1.00;;;;;;;;;;4991740;28;20366;-79
2023/08/10 08:39:06;;;;;;;6.13;1.20;;;;;;;;;;4989986;28;20046;-77
2023/08/10 08:41:35;;;;;;;2.67;1.20;;;;;;;;;;4957515;28;20043;-78
2023/08/10 08:44:03;;;;;;;3.28;1.17;;;;;;;;;;4985386;28;20470;-79
2023/08/10 08:46:37;;;;;;;2.28;1.27;;;;;;;;;;5004992;28;20101;-79
2023/08/10 08:49:04;;;;;;;3.55;1.20;;;;;;;;;;4993413;28;20046;-80
2023/08/10 08:51:31;;;;;;;4.03;1.92;;;;;;;;;;4994597;28;20066;-81
2023/08/10 08:54:00;;;;;;;3.47;1.20;;;;;;;;;;4995643;28;20100;-79
2023/08/10 08:56:27;;;;;;;3.35;1.50;;;;;;;;;;4992014;28;20065;-80
2023/08/10 08:58:55;;;;;;;3.63;1.20;;;;;;;;;;4992158;28;20046;-79
2023/08/10 09:01:22;;;;;;;2.88;1.30;;;;;;;;;;4991394;28;20136;-79
2023/08/10 09:03:48;;;;;;;2.90;1.20;;;;;;;;;;4993089;28;20050;-80
2023/08/10 09:06:16;;;;;;;3.35;1.40;;;;;;;;;;4993330;28;21281;-78
2023/08/10 09:08:42;;;;;;;2.63;1.48;;;;;;;;;;4990979;28;20046;-78
2023/08/10 09:11:09;;;;;;;3.63;1.40;;;;;;;;;;4992908;28;20073;-79
2023/08/10 09:13:36;;;;;;;2.78;1.30;;;;;;;;;;4992768;28;20051;-77
2023/08/10 09:16:08;;;;;;;1.70;1.25;;;;;;;;;;4991923;28;20050;-78
2023/08/10 09:18:36;;;;;;;4.75;1.45;;;;;;;;;;4992680;28;20105;-79
2023/08/10 09:21:07;;;;;;;6.45;1.55;;;;;;;;;;4997103;28;20054;-80
2023/08/10 09:23:35;;;;;;;3.63;1.40;;;;;;;;;;4992502;28;20057;-79
2023/08/10 09:26:06;;;;;;;2.60;1.27;;;;;;;;;;4991660;28;20101;-78
2023/08/10 09:28:35;;;;;;;2.80;1.27;;;;;;;;;;4990873;28;20061;-79
2023/08/10 09:31:02;;;;;;;3.42;1.08;;;;;;;;;;4983099;28;20043;-78
2023/08/10 09:33:31;;;;;;;3.80;1.30;;;;;;;;;;4991256;28;20053;-80
2023/08/10 09:35:58;;;;;;;2.95;1.60;;;;;;;;;;4992292;28;20049;-78
2023/08/10 09:38:25;;;;;;;3.80;1.70;;;;;;;;;;4991777;28;20053;-79
2023/08/10 09:41:11;;;;;;;2.70;1.30;;;;;;;;;;4992445;28;20098;-79
2023/08/10 09:43:38;;;;;;;;;;;;;;;;;;4941916;28;20054;-79
2023/08/10 09:46:06;;;;;;;5.22;1.42;;;;;;;;;;4981276;28;19980;-78
2023/08/10 09:48:34;;;;;;;2.40;1.35;;;;;;;;;;4991791;28;20473;-79
2023/08/10 09:51:05;;;;;;;4.70;1.40;;;;;;;;;;4992562;28;20101;-79
2023/08/10 09:53:32;;;;;;;4.25;1.52;;;;;;;;;;4995180;28;20083;-79
2023/08/10 09:56:00;;;;;;;6.53;1.45;;;;;;;;;;4992922;28;20030;-77
2023/08/10 09:58:27;;;;;;;2.95;1.55;;;;;;;;;;4996810;28;20106;-79
2023/08/10 10:00:54;;;;;;;4.03;1.60;;;;;;;;;;5008370;28;20125;-79
2023/08/10 10:03:22;;;;;;;2.83;1.35;;;;;;;;;;4993899;28;20618;-79
2023/08/10 10:05:50;;;;;;;2.67;1.50;;;;;;;;;;4995469;28;20050;-79
2023/08/10 10:08:17;;;;;;;2.35;1.38;;;;;;;;;;4993404;28;20058;-78
2023/08/10 10:10:47;;;;;;;3.08;1.20;;;;;;;;;;4989805;28;20534;-79
2023/08/10 10:13:15;;;;;;;2.47;1.77;;;;;;;;;;4993037;28;20046;-77
2023/08/10 10:15:42;;;;;;;3.17;1.70;;;;;;;;;;4983379;28;20496;-80
2023/08/10 10:18:10;;;;;;;5.22;1.52;;;;;;;;;;4993855;28;20412;-80
2023/08/10 10:20:42;;;;;;;4.45;1.75;;;;;;;;;;4994311;28;20042;-76
2023/08/10 10:23:19;;;;;;;2.47;1.42;;;;;;;;;;4994581;28;20113;-77
2023/08/10 10:25:58;;;;;;;3.85;1.90;;;;;;;;;;4992354;28;20050;-78
2023/08/10 10:28:26;;;;;;;3.80;1.65;;;;;;;;;;4993101;28;20152;-79
2023/08/10 10:30:55;;;;;;;3.30;1.73;;;;;;;;;;4991303;28;20065;-80
2023/08/10 10:33:23;;;;;;;3.60;1.85;;;;;;;;;;4993912;28;20038;-78
2023/08/10 10:36:08;;;;;;;3.35;1.67;;;;;;;;;;4987014;28;20455;-78
2023/08/10 10:38:53;;;;;;;4.05;1.75;;;;;;;;;;4984671;28;20799;-77
2023/08/10 10:41:32;;;;;;;3.38;1.67;;;;;;;;;;4988129;28;20050;-80
2023/08/10 10:44:00;;;;;;;2.92;1.60;;;;;;;;;;4989458;28;20462;-80
2023/08/10 10:46:35;;;;;;;3.05;1.95;;;;;;;;;;4985998;28;21500;-77
2023/08/10 10:49:11;;;;;;;2.28;1.88;;;;;;;;;;4989154;28;21805;-77
2023/08/10 10:51:47;;;;;;;3.10;1.80;;;;;;;;;;4985741;28;20050;-77
2023/08/10 10:54:15;;;;;;;5.13;2.08;;;;;;;;;;4985703;28;20055;-78
2023/08/10 10:56:42;;;;;;;2.53;1.60;;;;;;;;;;4986328;28;20039;-80
2023/08/10 10:59:08;;;;;;;3.25;2.15;;;;;;;;;;4988845;28;20173;-78
2023/08/10 11:01:35;;;;;;;4.47;1.85;;;;;;;;;;4987729;28;20046;-77
2023/08/10 11:04:05;;;;;;;2.90;1.60;;;;;;;;;;4990496;28;20050;-78
2023/08/10 11:06:31;;;;;;;5.15;1.90;;;;;;;;;;4975491;28;20490;-78
2023/08/10 11:08:58;;;;;;;3.60;2.03;;;;;;;;;;4991963;28;21046;-79
2023/08/10 11:11:25;;;;;;;4.25;2.22;;;;;;;;;;4992808;28;20072;-79
2023/08/10 11:13:52;;;;;;;3.47;1.88;;;;;;;;;;4993717;28;20053;-78
2023/08/10 11:16:19;;;;;;;5.78;1.80;;;;;;;;;;4991289;28;20065;-80
2023/08/10 11:18:47;;;;;;;3.65;1.90;;;;;;;;;;5005433;28;20042;-79
2023/08/10 11:21:14;;;;;;;5.00;2.00;;;;;;;;;;5002320;28;20049;-80
2023/08/10 11:23:41;;;;;;;4.03;1.90;;;;;;;;;;5008311;28;20077;-78
2023/08/10 11:26:08;;;;;;;3.72;1.98;;;;;;;;;;5005438;28;20045;-78
2023/08/10 11:28:37;;;;;;;5.70;2.40;;;;;;;;;;5000685;28;20112;-78
2023/08/10 11:31:04;;;;;;;4.60;2.13;;;;;;;;;;5003355;28;20077;-78
2023/08/10 11:33:31;;;;;;;3.78;1.90;;;;;;;;;;5003065;28;20568;-78
2023/08/10 11:35:58;;;;;;;3.30;1.70;;;;;;;;;;5001011;28;20499;-79
2023/08/10 11:38:26;;;;;;;4.38;1.77;;;;;;;;;;4995464;28;20070;-79
2023/08/10 11:40:57;;;;;;;3.53;1.70;;;;;;;;;;4992889;28;20501;-78
2023/08/10 11:43:25;;;;;;;3.08;1.48;;;;;;;;;;4993652;28;20042;-78
2023/08/10 11:45:55;;;;;;;3.13;1.77;;;;;;;;;;4993883;28;20077;-78
2023/08/10 11:48:26;;;;;;;2.58;1.48;;;;;;;;;;4991915;28;20042;-77
2023/08/10 11:51:00;;;;;;;2.08;1.50;;;;;;;;;;4992430;28;20553;-78
2023/08/10 11:53:36;;;;;;;1.98;1.30;;;;;;;;;;4991093;28;20057;-78
2023/08/10 11:56:05;;;;;;;2.60;1.70;;;;;;;;;;4988074;28;20042;-79
2023/08/10 11:58:32;;;;;;;3.22;1.77;;;;;;;;;;4992597;28;20046;-78
2023/08/10 12:01:02;;;;;;;2.50;1.58;;;;;;;;;;4990703;28;20050;-77
2023/08/10 12:03:29;;;;;;;4.03;1.70;;;;;;;;;;4991618;28;20124;-78
2023/08/10 12:06:05;;;;;;;4.75;1.58;;;;;;;;;;4993040;28;20125;-79
2023/08/10 12:08:39;;;;;;;3.22;1.50;;;;;;;;;;4991359;28;20062;-78
2023/08/10 12:11:11;;;;;;;2.60;1.60;;;;;;;;;;4991725;28;20354;-78
2023/08/10 12:13:45;;;;;;;4.53;1.63;;;;;;;;;;5001239;28;20552;-79
2023/08/10 12:16:13;;;;;;;1.67;1.30;;;;;;;;;;4990561;28;20050;-77
2023/08/10 12:18:40;;;;;;;2.40;1.30;;;;;;;;;;4994379;28;20574;-79
2023/08/10 12:21:07;;;;;;;2.58;1.42;;;;;;;;;;4993820;28;20042;-78
2023/08/10 12:23:35;;;;;;;3.33;1.40;;;;;;;;;;4994901;28;20500;-79
2023/08/10 12:26:02;;;;;;;5.38;1.58;;;;;;;;;;4992833;28;20043;-78
2023/08/10 12:28:29;;;;;;;2.92;1.70;;;;;;;;;;4994207;28;20045;-79
2023/08/10 12:30:56;;;;;;;2.05;1.58;;;;;;;;;;4990812;28;20094;-79
2023/08/10 12:33:23;;;;;;;2.00;1.38;;;;;;;;;;4993116;28;20110;-78
2023/08/10 12:35:51;;;;;;;2.97;1.75;;;;;;;;;;4991860;28;20498;-78
2023/08/10 12:38:18;;;;;;;2.53;1.30;;;;;;;;;;4994771;28;20108;-80
2023/08/10 12:40:45;;;;;;;3.42;1.65;;;;;;;;;;4995453;28;20049;-79
2023/08/10 12:43:12;;;;;;;3.20;1.38;;;;;;;;;;4995528;28;20074;-80
2023/08/10 12:45:38;;;;;;;3.13;1.60;;;;;;;;;;4991525;28;20046;-78
2023/08/10 12:48:06;;;;;;;2.80;1.40;;;;;;;;;;4989609;28;20418;-78
2023/08/10 12:50:33;;;;;;;2.67;1.58;;;;;;;;;;4987628;28;20057;-79
2023/08/10 12:53:00;;;;;;;2.30;1.27;;;;;;;;;;4987230;28;20118;-77
2023/08/10 12:55:26;;;;;;;4.32;1.73;;;;;;;;;;4986350;28;20053;-76
2023/08/10 12:57:53;;;;;;;3.65;1.30;;;;;;;;;;4988164;28;20046;-79
2023/08/10 13:00:20;;;;;;;2.78;1.38;;;;;;;;;;4987273;28;20392;-78
2023/08/10 13:02:48;;;;;;;2.15;1.63;;;;;;;;;;4981148;28;20043;-79
2023/08/10 13:05:15;;;;;;;3.22;1.60;;;;;;;;;;4987116;28;20050;-77
2023/08/10 13:07:43;;;;;;;3.50;1.58;;;;;;;;;;4994845;28;20042;-79
2023/08/10 13:10:10;;;;;;;3.00;1.60;;;;;;;;;;4988613;28;20069;-77
2023/08/10 13:12:37;;;;;;;4.53;1.45;;;;;;;;;;4990224;28;20045;-77
2023/08/10 13:15:05;;;;;;;3.47;1.77;;;;;;;;;;4981876;28;20096;-78
2023/08/10 13:17:32;;;;;;;2.80;1.50;;;;;;;;;;4969550;28;20108;-78
2023/08/10 13:19:58;;;;;;;3.42;1.50;;;;;;;;;;4990175;28;20560;-77
2023/08/10 13:22:26;;;;;;;3.17;1.70;;;;;;;;;;4989652;28;20569;-78
2023/08/10 13:24:53;;;;;;;3.88;1.63;;;;;;;;;;4988326;28;20046;-77
2023/08/10 13:27:22;;;;;;;4.13;1.85;;;;;;;;;;4996090;28;20050;-76
2023/08/10 13:29:49;;;;;;;2.78;1.65;;;;;;;;;;4993563;28;20046;-78
2023/08/10 13:32:17;;;;;;;4.18;1.60;;;;;;;;;;4991761;28;20070;-77
2023/08/10 13:34:44;;;;;;;2.13;1.50;;;;;;;;;;4989027;28;20769;-78
2023/08/10 13:37:11;;;;;;;2.30;1.50;;;;;;;;;;4992385;28;20050;-80
2023/08/10 13:39:37;;;;;;;3.10;1.33;;;;;;;;;;4994152;28;20042;-79
2023/08/10 13:42:04;;;;;;;2.17;1.60;;;;;;;;;;4989180;28;20535;-79
2023/08/10 13:44:32;;;;;;;2.67;1.60;;;;;;;;;;4993439;28;20080;-78
2023/08/10 13:46:59;;;;;;;3.47;1.80;;;;;;;;;;4993979;28;20498;-78
2023/08/10 13:49:25;;;;;;;3.88;1.70;;;;;;;;;;4993173;28;20050;-78
2023/08/10 13:51:59;;;;;;;3.00;1.50;;;;;;;;;;4991672;28;20069;-76
2023/08/10 13:54:26;;;;;;;3.40;1.50;;;;;;;;;;4990651;28;20109;-78
2023/08/10 13:56:57;;;;;;;2.60;1.88;;;;;;;;;;4992359;28;20037;-78
2023/08/10 13:59:24;;;;;;;2.50;1.70;;;;;;;;;;4996191;28;20057;-79
2023/08/10 14:01:52;;;;;;;3.17;1.45;;;;;;;;;;4991309;28;20044;-77
2023/08/10 14:04:20;;;;;;;2.45;1.60;;;;;;;;;;4993545;28;20077;-79
2023/08/10 14:06:47;;;;;;;4.13;1.50;;;;;;;;;;4994394;28;20053;-79
2023/08/10 14:09:14;;;;;;;3.30;1.40;;;;;;;;;;4993450;28;20046;-79
2023/08/10 14:11:43;;;;;;;1.80;1.35;;;;;;;;;;4992976;28;20101;-79
2023/08/10 14:14:12;;;;;;;2.35;1.40;;;;;;;;;;4973447;28;20120;-79
2023/08/10 14:16:39;;;;;;;3.78;1.70;;;;;;;;;;4989432;28;20046;-79
2023/08/10 14:19:06;;;;;;;3.58;1.42;;;;;;;;;;4989254;28;20518;-78
2023/08/10 14:21:32;;;;;;;3.92;1.55;;;;;;;;;;5000836;28;20378;-79
2023/08/10 14:24:01;;;;;;;3.65;1.70;;;;;;;;;;4993697;28;21200;-79
2023/08/10 14:26:28;;;;;;;2.15;1.40;;;;;;;;;;4990499;28;20058;-79
2023/08/10 14:28:55;;;;;;;2.33;1.40;;;;;;;;;;4994109;28;20630;-78
2023/08/10 14:31:21;;;;;;;2.60;1.55;;;;;;;;;;4992383;28;20680;-80
2023/08/10 14:33:48;;;;;;;2.22;1.42;;;;;;;;;;4991724;28;20057;-79
2023/08/10 14:36:15;;;;;;;2.95;1.55;;;;;;;;;;4991108;28;20074;-78
2023/08/10 14:38:42;;;;;;;2.80;1.63;;;;;;;;;;4990244;28;20061;-79
2023/08/10 14:41:09;;;;;;;3.83;1.30;;;;;;;;;;4993030;28;20050;-80
2023/08/10 14:43:36;;;;;;;2.55;1.50;;;;;;;;;;4991182;28;20050;-79
2023/08/10 14:46:02;;;;;;;5.88;1.70;;;;;;;;;;5002534;28;20046;-80
2023/08/10 14:48:29;;;;;;;3.00;1.50;;;;;;;;;;4993730;28;20514;-78